Time;durP1;ratioP1;P1;durP2;ratioP2;P2;SDS_P1;SDS_P2;PMS_P1;PMS_P2;Temp;Humidity;BMP_temperature;BMP_pressure;BME280_temperature;BME280_humidity;BME280_pressure;Samples;Min_cycle;Max_cycle;Signal;HPM_P1;HPM_P2
2022/07/12 00:01:21;;;;;;;;;;;;;;;16.51;100.00;102421.09;5075105;28;19917;-57
2022/07/12 00:03:46;;;;;;;;;;;;;;;16.51;100.00;102429.13;5074720;28;19920;-57
2022/07/12 00:06:11;;;;;;;;;;;;;;;16.48;100.00;102433.75;5075030;28;19924;-57
2022/07/12 00:08:37;;;;;;;;;;;;;;;16.46;100.00;102422.22;5074771;28;19928;-57
2022/07/12 00:11:03;;;;;;;;;;;;;;;16.46;100.00;102424.91;5074812;28;19956;-58
2022/07/12 00:13:29;;;;;;;;;;;;;;;16.46;100.00;102422.22;5074698;28;19927;-58
2022/07/12 00:15:55;;;;;;;;;;;;;;;16.50;100.00;102424.72;5056716;28;20009;-57
2022/07/12 00:18:20;;;;;;;;;;;;;;;16.53;100.00;102424.59;5074871;28;19958;-58
2022/07/12 00:20:45;;;;;;;;;;;;;;;16.52;100.00;102420.19;5073393;28;20002;-58
2022/07/12 00:23:10;;;;;;;;;;;;;;;16.51;100.00;102421.09;5073355;28;19924;-58
2022/07/12 00:25:36;;;;;;;;;;;;;;;16.51;100.00;102412.22;5074261;28;20291;-58
2022/07/12 00:28:01;;;;;;;;;;;;;;;16.49;100.00;102416.75;5057706;28;20368;-58
2022/07/12 00:30:26;;;;;;;;;;;;;;;16.44;100.00;102414.28;5056807;28;19916;-58
2022/07/12 00:32:51;;;;;;;;;;;;;;;16.40;100.00;102422.53;5074592;28;19939;-58
2022/07/12 00:35:16;;;;;;;;;;;;;;;16.33;100.00;102420.13;5074171;28;20395;-59
2022/07/12 00:37:42;;;;;;;;;;;;;;;16.28;100.00;102413.22;5074102;28;20018;-59
2022/07/12 00:40:09;;;;;;;;;;;;;;;16.25;100.00;102416.91;5074537;28;19920;-57
2022/07/12 00:42:35;;;;;;;;;;;;;;;16.22;100.00;102412.56;5074527;28;19912;-59
2022/07/12 00:45:00;;;;;;;;;;;;;;;16.20;100.00;102414.44;5073793;28;20369;-58
2022/07/12 00:47:33;;;;;;;;;;;;;;;16.20;100.00;102422.47;5074187;28;19927;-57
2022/07/12 00:49:59;;;;;;;;;;;;;;;16.22;100.00;102417.91;5072001;28;19916;-57
2022/07/12 00:52:24;;;;;;;;;;;;;;;16.20;100.00;102409.09;5060101;28;19916;-58
2022/07/12 00:54:49;;;;;;;;;;;;;;;16.17;100.00;102417.25;5061327;28;19928;-58
2022/07/12 00:57:15;;;;;;;;;;;;;;;16.15;100.00;102421.78;5073588;28;19947;-59
2022/07/12 00:59:40;;;;;;;;;;;;;;;16.12;100.00;102421.06;5073843;28;20269;-58
2022/07/12 01:02:05;;;;;;;;;;;;;;;16.09;100.00;102415.81;5074172;28;19917;-58
2022/07/12 01:04:31;;;;;;;;;;;;;;;16.07;100.00;102415.91;5073954;28;19913;-59
2022/07/12 01:06:56;;;;;;;;;;;;;;;16.03;100.00;102407.13;5037180;28;19921;-58
2022/07/12 01:09:21;;;;;;;;;;;;;;;15.98;100.00;102408.28;5053535;28;19924;-58
2022/07/12 01:11:46;;;;;;;;;;;;;;;15.94;100.00;102404.00;5073865;28;19919;-58
2022/07/12 01:14:13;;;;;;;;;;;;;;;15.88;100.00;102402.44;5073884;28;20019;-59
2022/07/12 01:16:39;;;;;;;;;;;;;;;15.85;100.00;102391.91;5053966;28;21086;-59
2022/07/12 01:19:06;;;;;;;;;;;;;;;15.83;100.00;102380.41;5073253;28;20007;-59
2022/07/12 01:21:34;;;;;;;;;;;;;;;15.79;100.00;102384.97;5073305;28;20375;-59
2022/07/12 01:24:00;;;;;;;;;;;;;;;15.77;100.00;102392.19;5055712;28;20558;-58
2022/07/12 01:26:26;;;;;;;;;;;;;;;15.76;100.00;102384.25;5073012;28;19924;-58
2022/07/12 01:28:52;;;;;;;;;;;;;;;15.72;100.00;102389.72;5073238;28;19924;-58
2022/07/12 01:31:18;;;;;;;;;;;;;;;15.72;100.00;102394.19;5073043;28;19924;-59
2022/07/12 01:33:43;;;;;;;;;;;;;;;15.71;100.00;102397.78;5073390;28;19927;-59
2022/07/12 01:36:08;;;;;;;;;;;;;;;15.68;100.00;102397.94;5073328;28;20368;-58
2022/07/12 01:38:33;;;;;;;;;;;;;;;15.66;100.00;102399.78;5072836;28;20382;-57
2022/07/12 01:40:59;;;;;;;;;;;;;;;15.65;100.00;102398.03;5073107;28;19917;-57
2022/07/12 01:43:24;;;;;;;;;;;;;;;15.63;100.00;102403.47;5073479;28;20334;-57
2022/07/12 01:45:49;;;;;;;;;;;;;;;15.63;100.00;102407.94;5072753;28;20015;-56
2022/07/12 01:48:14;;;;;;;;;;;;;;;15.59;100.00;102409.88;5062687;28;20277;-58
2022/07/12 01:50:40;;;;;;;;;;;;;;;15.55;100.00;102408.25;5069556;28;20557;-58
2022/07/12 01:53:06;;;;;;;;;;;;;;;15.56;100.00;102409.97;5073215;28;19936;-58
2022/07/12 01:55:31;;;;;;;;;;;;;;;15.56;100.00;102416.19;5072954;28;19995;-58
2022/07/12 01:57:57;;;;;;;;;;;;;;;15.55;100.00;102422.47;5070100;28;19979;-58
2022/07/12 02:00:23;;;;;;;;;;;;;;;15.53;100.00;102416.31;5046586;28;20349;-58
2022/07/12 02:02:48;;;;;;;;;;;;;;;15.49;100.00;102412.03;5052727;28;19921;-58
2022/07/12 02:05:13;;;;;;;;;;;;;;;15.48;100.00;102420.09;5052762;28;19917;-58
2022/07/12 02:07:39;;;;;;;;;;;;;;;15.46;100.00;102419.28;5034108;28;19913;-58
2022/07/12 02:10:05;;;;;;;;;;;;;;;15.47;100.00;102423.69;5071439;28;19982;-58
2022/07/12 02:12:31;;;;;;;;;;;;;;;15.47;100.00;102429.91;5070958;28;19921;-58
2022/07/12 02:14:56;;;;;;;;;;;;;;;15.44;100.00;102430.03;5071925;28;20409;-58
2022/07/12 02:17:21;;;;;;;;;;;;;;;15.39;100.00;102426.69;5054615;28;19924;-57
2022/07/12 02:19:47;;;;;;;;;;;;;;;15.36;100.00;102434.81;5072257;28;19920;-58
2022/07/12 02:22:12;;;;;;;;;;;;;;;15.35;100.00;102415.25;5072164;28;19916;-58
2022/07/12 02:24:38;;;;;;;;;;;;;;;15.35;100.00;102415.25;5072244;28;19923;-58
2022/07/12 02:27:03;;;;;;;;;;;;;;;15.35;100.00;102417.06;5072201;28;20452;-58
2022/07/12 02:29:28;;;;;;;;;;;;;;;15.34;100.00;102410.84;5071917;28;19928;-57
2022/07/12 02:31:54;;;;;;;;;;;;;;;15.34;100.00;102410.84;5072393;28;19966;-57
2022/07/12 02:34:19;;;;;;;;;;;;;;;15.35;100.00;102403.72;5054401;28;20011;-56
2022/07/12 02:36:44;;;;;;;;;;;;;;;15.37;100.00;102415.19;5071854;28;19926;-59
2022/07/12 02:39:11;;;;;;;;;;;;;;;15.38;100.00;102409.81;5072416;28;19916;-57
2022/07/12 02:41:36;;;;;;;;;;;;;;;15.38;100.00;102417.81;5071808;28;19928;-57
2022/07/12 02:44:02;;;;;;;;;;;;;;;15.35;100.00;102417.91;5072377;28;19920;-57
2022/07/12 02:46:27;;;;;;;;;;;;;;;15.34;100.00;102413.50;5071619;28;19921;-57
2022/07/12 02:48:52;;;;;;;;;;;;;;;15.31;100.00;102407.44;5072234;28;20363;-57
2022/07/12 02:51:17;;;;;;;;;;;;;;;15.26;100.00;102409.44;5069304;28;19920;-57
2022/07/12 02:53:43;;;;;;;;;;;;;;;15.20;100.00;102419.38;5072208;28;20388;-57
2022/07/12 02:56:08;;;;;;;;;;;;;;;15.15;100.00;102421.34;5071726;28;20363;-57
2022/07/12 02:58:34;;;;;;;;;;;;;;;15.13;100.00;102417.91;5072172;28;19963;-59
2022/07/12 03:00:59;;;;;;;;;;;;;;;15.10;100.00;102422.47;5071738;28;19961;-59
2022/07/12 03:03:24;;;;;;;;;;;;;;;15.05;100.00;102420.88;5072572;28;19945;-59
2022/07/12 03:05:50;;;;;;;;;;;;;;;15.04;100.00;102424.47;5071557;28;20392;-58
2022/07/12 03:08:16;;;;;;;;;;;;;;;15.03;100.00;102419.19;5071953;28;20356;-58
2022/07/12 03:10:41;;;;;;;;;;;;;;;15.05;100.00;102418.19;5054046;28;19978;-58
2022/07/12 03:13:06;;;;;;;;;;;;;;;15.06;100.00;102419.06;5055124;28;19928;-58
2022/07/12 03:15:32;;;;;;;;;;;;;;;15.06;100.00;102416.38;5071403;28;19932;-58
2022/07/12 03:17:58;;;;;;;;;;;;;;;15.04;100.00;102416.47;5072916;28;19917;-58
2022/07/12 03:20:24;;;;;;;;;;;;;;;15.04;100.00;102421.78;5076150;28;19913;-58
2022/07/12 03:22:50;;;;;;;;;;;;;;;15.03;100.00;102419.19;5075567;28;19962;-58
2022/07/12 03:25:16;;;;;;;;;;;;;;;15.03;100.00;102429.88;5068820;28;19951;-58
2022/07/12 03:27:41;;;;;;;;;;;;;;;15.02;100.00;102425.44;5068949;28;19916;-59
2022/07/12 03:30:07;;;;;;;;;;;;;;;14.99;100.00;102421.09;5074423;28;19912;-58
2022/07/12 03:32:32;;;;;;;;;;;;;;;14.98;100.00;102421.16;5075417;28;20003;-58
2022/07/12 03:34:58;;;;;;;;;;;;;;;14.97;100.00;102430.09;5075931;28;20363;-58
2022/07/12 03:37:23;;;;;;;;;;;;;;;14.97;100.00;102422.94;5048700;28;19978;-57
2022/07/12 03:39:49;;;;;;;;;;;;;;;14.97;100.00;102422.09;5064084;28;20062;-58
2022/07/12 03:42:14;;;;;;;;;;;;;;;14.96;100.00;102415.91;5055546;28;19913;-58
2022/07/12 03:44:39;;;;;;;;;;;;;;;14.92;100.00;102416.91;5074296;28;19928;-58
2022/07/12 03:47:04;;;;;;;;;;;;;;;14.91;100.00;102425.84;5074830;28;19925;-57
2022/07/12 03:49:30;;;;;;;;;;;;;;;14.90;100.00;102435.66;5057505;28;19916;-58
2022/07/12 03:51:55;;;;;;;;;;;;;;;14.90;100.00;102432.13;5075516;28;19912;-57
2022/07/12 03:54:20;;;;;;;;;;;;;;;14.94;100.00;102431.06;5074818;28;19927;-58
2022/07/12 03:59:29;;;;;;;;;;;;;;;15.01;100.00;102432.59;5075148;28;19923;-59
2022/07/12 04:01:55;;;;;;;;;;;;;;;15.04;100.00;102427.13;5074768;28;20272;-58
2022/07/12 04:04:20;;;;;;;;;;;;;;;15.14;100.00;102429.44;5057386;28;19929;-58
2022/07/12 04:06:46;;;;;;;;;;;;;;;15.19;100.00;102425.66;5074279;28;19970;-58
2022/07/12 04:09:11;;;;;;;;;;;;;;;15.23;100.00;102429.94;5074468;28;19950;-58
2022/07/12 04:11:36;;;;;;;;;;;;;;;15.33;100.00;102424.25;5074754;28;20006;-58
2022/07/12 04:14:01;;;;;;;;;;;;;;;15.39;100.00;102422.19;5040000;28;19939;-58
2022/07/12 04:16:27;;;;;;;;;;;;;;;15.48;100.00;102422.78;5072719;28;19923;-57
2022/07/12 04:18:53;;;;;;;;;;;;;;;15.54;100.00;102428.72;5071961;28;20437;-58
2022/07/12 04:21:19;;;;;;;;;;;;;;;15.62;100.00;102435.56;5070169;28;19920;-58
2022/07/12 04:23:44;;;;;;;;;;;;;;;15.68;100.00;102430.84;5053922;28;19916;-58
2022/07/12 04:26:09;;;;;;;;;;;;;;;15.75;100.00;102430.59;5073970;28;19983;-58
2022/07/12 04:28:35;;;;;;;;;;;;;;;15.83;100.00;102429.38;5071503;28;19947;-57
2022/07/12 04:31:00;;;;;;;;;;;;;;;15.91;100.00;102436.19;5071264;28;19913;-57
2022/07/12 04:33:25;;;;;;;;;;;;;;;15.97;100.00;102434.16;5052839;28;19917;-58
2022/07/12 04:35:51;;;;;;;;;;;;;;;16.07;100.00;102436.41;5050009;28;20028;-57
2022/07/12 04:38:16;;;;;;;;;;;;;;;16.11;100.00;102433.53;5073833;28;19921;-57
2022/07/12 04:40:41;;;;;;;;;;;;;;;16.21;100.00;102431.34;5058447;28;19928;-57
2022/07/12 04:43:06;;;;;;;;;;;;;;;16.33;100.00;102429.94;5071187;28;20351;-57
2022/07/12 04:45:31;;;;;;;;;;;;;;;16.43;100.00;102430.41;5070323;28;20380;-57
2022/07/12 04:47:57;;;;;;;;;;;;;;;16.51;100.00;102428.28;5057463;28;20012;-59
2022/07/12 04:50:22;;;;;;;;;;;;;;;16.61;100.00;102428.72;5036765;28;19920;-59
2022/07/12 04:52:47;;;;;;;;;;;;;;;16.70;100.00;102428.28;5074953;28;19931;-56
2022/07/12 04:55:13;;;;;;;;;;;;;;;16.77;100.00;102429.75;5074266;28;19999;-59
2022/07/12 04:57:38;;;;;;;;;;;;;;;16.89;100.00;102439.00;5073573;28;20383;-59
2022/07/12 05:00:04;;;;;;;;;;;;;;;16.99;100.00;102436.81;5074233;28;19916;-59
2022/07/12 05:02:29;;;;;;;;;;;;;;;17.15;100.00;102437.00;5074142;28;19939;-59
2022/07/12 05:04:55;;;;;;;;;;;;;;;17.22;100.00;102437.56;5074084;28;20401;-58
2022/07/12 05:07:20;;;;;;;;;;;;;;;17.29;100.00;102434.53;5039069;28;20350;-58
2022/07/12 05:09:45;;;;;;;;;;;;;;;17.34;100.00;102439.63;5073513;28;19931;-57
2022/07/12 05:12:11;;;;;;;;;;;;;;;17.40;100.00;102436.66;5057087;28;19932;-58
2022/07/12 05:14:36;;;;;;;;;;;;;;;17.45;100.00;102445.34;5073817;28;19927;-58
2022/07/12 05:17:01;;;;;;;;;;;;;;;17.49;100.00;102444.28;5073122;28;19920;-57
2022/07/12 05:19:26;;;;;;;;;;;;;;;17.57;100.00;102454.63;5073589;28;19916;-57
2022/07/12 05:21:52;;;;;;;;;;;;;;;17.65;100.00;102451.56;5073021;28;19928;-59
2022/07/12 05:24:17;;;;;;;;;;;;;;;17.72;100.00;102457.47;5073635;28;20397;-57
2022/07/12 05:26:42;;;;;;;;;;;;;;;17.82;100.00;102458.75;5066227;28;19920;-57
2022/07/12 05:29:08;;;;;;;;;;;;;;;17.94;100.00;102462.66;5041918;28;20380;-58
2022/07/12 05:31:33;;;;;;;;;;;;;;;18.08;100.00;102459.28;5071740;28;19942;-58
2022/07/12 05:33:58;;;;;;;;;;;;;;;18.21;100.00;102470.25;5073029;28;19912;-58
2022/07/12 05:36:24;;;;;;;;;;;;;;;18.34;100.00;102463.31;5071588;28;19917;-58
2022/07/12 05:38:49;;;;;;;;;;;;;;;18.48;100.00;102462.59;5071164;28;19920;-58
2022/07/12 05:41:14;;;;;;;;;;;;;;;18.58;100.00;102465.66;5069398;28;19964;-55
2022/07/12 05:43:39;;;;;;;;;;;;;;;18.67;100.00;102468.72;5072336;28;19920;-58
2022/07/12 05:46:05;;;;;;;;;;;;;;;18.69;100.00;102465.94;5072677;28;19931;-55
2022/07/12 05:48:30;;;;;;;;;;;;;;;18.74;100.00;102466.56;5072252;28;19983;-53
2022/07/12 05:53:21;;;;;;;;;;;;;;;18.78;100.00;102467.28;5072764;28;19916;-52
2022/07/12 05:53:41;;;;;;;;;;;;;;;18.79;100.00;102467.19;5067934;28;19927;-59
2022/07/12 05:56:06;;;;;;;;;;;;;;;18.89;100.00;102466.69;5070097;28;20007;-58
2022/07/12 05:58:31;;;;;;;;;;;;;;;18.96;100.00;102468.13;5037886;28;19958;-58
2022/07/12 06:00:57;;;;;;;;;;;;;;;19.04;100.00;102465.00;5054711;28;20015;-58
2022/07/12 06:03:22;;;;;;;;;;;;;;;19.07;100.00;102459.50;5039834;28;19954;-57
2022/07/12 06:05:47;;;;;;;;;;;;;;;19.11;100.00;102469.09;5062728;28;19925;-58
2022/07/12 06:08:12;;;;;;;;;;;;;;;19.10;100.00;102460.16;5051372;28;19924;-58
2022/07/12 06:10:38;;;;;;;;;;;;;;;19.13;100.00;102454.66;5051034;28;19928;-57
2022/07/12 06:13:03;;;;;;;;;;;;;;;19.15;100.00;102466.16;5071856;28;19993;-57
2022/07/12 06:15:29;;;;;;;;;;;;;;;19.19;100.00;102460.63;5060855;28;20053;-58
2022/07/12 06:17:54;;;;;;;;;;;;;;;19.17;100.00;102463.41;5061684;28;20371;-58
2022/07/12 06:20:19;;;;;;;;;;;;;;;19.16;100.00;102469.72;5056658;28;19928;-57
2022/07/12 06:22:44;;;;;;;;;;;;;;;19.16;100.00;102470.56;5065983;28;19920;-59
2022/07/12 06:25:10;;;;;;;;;;;;;;;19.17;100.00;102468.78;5053702;28;19916;-57
2022/07/12 06:27:35;;;;;;;;;;;;;;;19.25;100.00;102468.34;5039344;28;19920;-58
2022/07/12 06:30:00;;;;;;;;;;;;;;;19.36;100.00;102467.72;5060655;28;19927;-58
2022/07/12 06:32:26;;;;;;;;;;;;;;;19.51;100.00;102461.47;5053882;28;19933;-57
2022/07/12 06:34:51;;;;;;;;;;;;;;;19.63;100.00;102466.16;5060342;28;20023;-58
2022/07/12 06:37:16;;;;;;;;;;;;;;;19.73;100.00;102469.19;5062384;28;20141;-58
2022/07/12 06:39:41;;;;;;;;;;;;;;;19.77;100.00;102477.94;5059542;28;19924;-60
2022/07/12 06:42:07;;;;;;;;;;;;;;;19.86;100.00;102476.56;5061880;28;20368;-59
2022/07/12 06:44:33;;;;;;;;;;;;;;;19.95;100.00;102481.44;5042618;28;19927;-59
2022/07/12 06:46:58;;;;;;;;;;;;;;;19.97;100.00;102493.81;5062803;28;19967;-59
2022/07/12 06:49:24;;;;;;;;;;;;;;;20.08;100.00;102498.56;5067495;28;20326;-59
2022/07/12 06:51:49;;;;;;;;;;;;;;;20.18;100.00;102492.63;5068388;28;19920;-59
2022/07/12 06:54:14;;;;;;;;;;;;;;;20.23;100.00;102499.47;5038634;28;20283;-59
2022/07/12 06:56:40;;;;;;;;;;;;;;;20.33;100.00;102486.31;5051756;28;19917;-58
2022/07/12 06:59:05;;;;;;;;;;;;;;;20.42;100.00;102492.97;5033983;28;19917;-59
2022/07/12 07:01:30;;;;;;;;;;;;;;;20.46;100.00;102490.03;5054267;28;20135;-58
2022/07/12 07:03:55;;;;;;;;;;;;;;;20.57;99.71;102494.72;5045814;28;19916;-58
2022/07/12 07:06:20;;;;;;;;;;;;;;;20.65;99.90;102488.88;5064002;28;20371;-57
2022/07/12 07:08:46;;;;;;;;;;;;;;;20.64;97.71;102489.88;5051317;28;20380;-57
2022/07/12 07:11:11;;;;;;;;;;;;;;;20.71;98.24;102487.69;5051422;28;20292;-57
2022/07/12 07:13:36;;;;;;;;;;;;;;;20.87;97.26;102485.78;5060781;28;19917;-57
2022/07/12 07:16:02;;;;;;;;;;;;;;;21.13;97.04;102482.41;5060326;28;20296;-57
2022/07/12 07:18:27;;;;;;;;;;;;;;;21.33;96.52;102479.28;5051655;28;19917;-58
2022/07/12 07:20:52;;;;;;;;;;;;;;;21.48;94.70;102477.41;5033846;28;20016;-58
2022/07/12 07:23:18;;;;;;;;;;;;;;;21.66;93.75;102490.69;5037520;28;20031;-58
2022/07/12 07:25:46;;;;;;;;;;;;;;;21.86;93.41;102479.44;5052925;28;20015;-58
2022/07/12 07:28:11;;;;;;;;;;;;;;;22.12;91.58;102487.59;5051575;28;19918;-59
2022/07/12 07:30:55;;;;;;;;;;;;;;;22.22;89.88;102482.44;5056931;28;20747;-58
2022/07/12 07:33:21;;;;;;;;;;;;;;;22.17;88.58;102480.06;5053102;28;19917;-58
2022/07/12 07:35:46;;;;;;;;;;;;;;;22.24;87.24;102481.38;5052389;28;20391;-58
2022/07/12 07:38:12;;;;;;;;;;;;;;;22.30;88.14;102484.63;5056419;28;19936;-58
2022/07/12 07:40:37;;;;;;;;;;;;;;;22.32;87.66;102472.75;5063959;28;19925;-58
2022/07/12 07:43:02;;;;;;;;;;;;;;;22.30;87.03;102482.75;5059153;28;20035;-57
2022/07/12 07:45:27;;;;;;;;;;;;;;;22.20;86.83;102481.69;5065655;28;19928;-58
2022/07/12 07:47:52;;;;;;;;;;;;;;;22.25;85.47;102482.22;5056922;28;19970;-57
2022/07/12 07:50:18;;;;;;;;;;;;;;;22.17;84.65;102485.44;5037388;28;19924;-58
2022/07/12 07:52:44;;;;;;;;;;;;;;;22.17;84.95;102476.50;5067879;28;19920;-58
2022/07/12 07:55:09;;;;;;;;;;;;;;;22.32;84.68;102482.69;5066760;28;20372;-58
2022/07/12 07:57:35;;;;;;;;;;;;;;;22.35;83.37;102486.00;5069095;28;19953;-58
2022/07/12 08:00:00;;;;;;;;;;;;;;;22.37;84.13;102491.38;5066300;28;19962;-58
2022/07/12 08:02:25;;;;;;;;;;;;;;;22.44;84.45;102483.69;5063112;28;19923;-58
2022/07/12 08:04:51;;;;;;;;;;;;;;;22.62;83.92;102479.69;5053168;28;19981;-58
2022/07/12 08:07:17;;;;;;;;;;;;;;;22.72;83.12;102480.81;5047661;28;20047;-59
2022/07/12 08:09:42;;;;;;;;;;;;;;;22.76;83.25;102484.13;5036633;28;20007;-59
2022/07/12 08:12:07;;;;;;;;;;;;;;;22.81;83.33;102491.91;5057342;28;19920;-59
2022/07/12 08:14:33;;;;;;;;;;;;;;;22.80;82.17;102482.06;5056594;28;19916;-59
2022/07/12 08:16:58;;;;;;;;;;;;;;;22.71;83.45;102495.28;5065064;28;19935;-58
2022/07/12 08:19:23;;;;;;;;;;;;;;;22.70;82.99;102487.28;5059826;28;19924;-58
2022/07/12 08:21:48;;;;;;;;;;;;;;;22.58;83.31;102489.00;5065568;28;19917;-58
2022/07/12 08:24:14;;;;;;;;;;;;;;;22.64;84.83;102498.50;5068074;28;19963;-58
2022/07/12 08:26:39;;;;;;;;;;;;;;;22.70;83.44;102488.13;5051937;28;19989;-58
2022/07/12 08:29:05;;;;;;;;;;;;;;;22.86;84.09;102487.03;5063432;28;19920;-58
2022/07/12 08:31:30;;;;;;;;;;;;;;;22.96;83.41;102488.13;5072539;28;19981;-58
2022/07/12 08:33:55;;;;;;;;;;;;;;;23.06;82.13;102488.34;5060057;28;20392;-58
2022/07/12 08:36:21;;;;;;;;;;;;;;;23.53;81.49;102483.13;5069081;28;20287;-58
2022/07/12 08:38:46;;;;;;;;;;;;;;;24.02;79.01;102476.78;5066014;28;19979;-58
2022/07/12 08:41:13;;;;;;;;;;;;;;;24.71;76.35;102477.81;5059566;28;19959;-58
2022/07/12 08:43:38;;;;;;;;;;;;;;;24.93;74.45;102482.38;5035822;28;19917;-57
2022/07/12 08:46:04;;;;;;;;;;;;;;;24.81;72.46;102488.78;5035469;28;19925;-58
2022/07/12 08:48:29;;;;;;;;;;;;;;;25.19;71.87;102493.84;5050842;28;20364;-59
2022/07/12 08:51:02;;;;;;;;;;;;;;;26.05;67.53;102490.44;5054094;28;19923;-59
2022/07/12 08:53:27;;;;;;;;;;;;;;;26.45;65.96;102488.88;5054823;28;20442;-59
2022/07/12 08:55:53;;;;;;;;;;;;;;;26.43;63.01;102472.72;5059044;28;20004;-59
2022/07/12 08:58:18;;;;;;;;;;;;;;;26.40;63.87;102481.09;5061914;28;20062;-59
2022/07/12 09:00:44;;;;;;;;;;;;;;;26.40;63.59;102481.09;5059906;28;19916;-59
2022/07/12 09:03:12;;;;;;;;;;;;;;;26.77;61.57;102475.19;5053306;28;19916;-59
2022/07/12 09:05:37;;;;;;;;;;;;;;;26.80;61.41;102479.50;5037008;28;19924;-63
2022/07/12 09:08:06;;;;;;;;;;;;;;;27.32;57.99;102476.66;5056902;28;19920;-60
2022/07/12 09:10:32;;;;;;;;;;;;;;;27.82;52.87;102481.19;5052559;28;19920;-58
2022/07/12 09:12:58;;;;;;;;;;;;;;;27.69;53.75;102491.53;5065858;28;20428;-58
2022/07/12 09:15:23;;;;;;;;;;;;;;;28.34;52.23;102494.53;5057425;28;20362;-59
2022/07/12 09:18:03;;;;;;;;;;;;;;;28.31;53.53;102496.69;5062848;28;19913;-58
2022/07/12 09:20:32;;;;;;;;;;;;;;;28.16;51.44;102493.53;5063687;28;19924;-59
2022/07/12 09:22:59;;;;;;;;;;;;;;;28.28;51.13;102484.22;5053100;28;19920;-58
2022/07/12 09:25:24;;;;;;;;;;;;;;;28.57;49.06;102488.72;5061660;28;20372;-58
2022/07/12 09:27:50;;;;;;;;;;;;;;;28.89;51.00;102477.44;5053217;28;19919;-59
2022/07/12 09:30:15;;;;;;;;;;;;;;;29.82;44.51;102479.16;5060512;28;19916;-58
2022/07/12 09:36:06;;;;;;;;;;;;;;;29.72;44.33;102473.81;5056451;28;20006;-58
2022/07/12 09:38:33;;;;;;;;;;;;;;;30.24;42.07;102474.94;5054302;28;19920;-58
2022/07/12 09:40:58;;;;;;;;;;;;;;;29.75;41.68;102478.94;5057307;28;20444;-59
2022/07/12 09:43:24;;;;;;;;;;;;;;;30.06;41.45;102484.00;5053086;28;20011;-59
2022/07/12 09:45:50;;;;;;;;;;;;;;;30.40;40.07;102485.13;5054820;28;19925;-59
2022/07/12 09:48:15;;;;;;;;;;;;;;;30.81;40.16;102479.91;5052667;28;19924;-59
2022/07/12 09:50:45;;;;;;;;;;;;;;;31.30;37.79;102479.28;5054624;28;20364;-58
2022/07/12 09:53:12;;;;;;;;;;;;;;;31.24;38.04;102468.13;5047514;28;19916;-59
2022/07/12 09:55:37;;;;;;;;;;;;;;;31.15;38.43;102476.34;5060806;28;19942;-59
2022/07/12 09:58:04;;;;;;;;;;;;;;;30.65;38.98;102477.09;5060287;28;19921;-59
2022/07/12 10:00:30;;;;;;;;;;;;;;;30.76;43.38;102478.69;5052249;28;19912;-59
2022/07/12 10:02:57;;;;;;;;;;;;;;;31.07;38.47;102478.19;5070182;28;19924;-59
2022/07/12 10:05:24;;;;;;;;;;;;;;;30.75;40.29;102483.31;5066587;28;19912;-59
2022/07/12 10:07:50;;;;;;;;;;;;;;;30.54;40.85;102490.03;5070953;28;19920;-59
2022/07/12 10:10:16;;;;;;;;;;;;;;;30.68;40.21;102485.84;5071568;28;19916;-59
2022/07/12 10:12:43;;;;;;;;;;;;;;;31.62;37.45;102485.88;5071287;28;19925;-59
2022/07/12 10:15:09;;;;;;;;;;;;;;;32.01;38.91;102490.69;5049646;28;19931;-59
2022/07/12 10:17:34;;;;;;;;;;;;;;;32.25;35.80;102485.41;5045525;28;19916;-60
2022/07/12 10:20:22;;;;;;;;;;;;;;;32.38;36.23;102493.97;5063620;28;20500;-59
2022/07/12 10:22:47;;;;;;;;;;;;;;;32.18;36.76;102508.00;5061376;28;20029;-59
2022/07/12 10:25:31;;;;;;;;;;;;;;;31.84;35.88;102502.66;5065730;28;19964;-59
2022/07/12 10:28:00;;;;;;;;;;;;;;;31.63;38.69;102494.97;5053039;28;19916;-59
2022/07/12 10:30:25;;;;;;;;;;;;;;;32.00;37.31;102499.94;5047153;28;19924;-59
2022/07/12 10:32:53;;;;;;;;;;;;;;;32.30;34.88;102496.69;5059202;28;19921;-59
2022/07/12 10:35:22;;;;;;;;;;;;;;;32.48;34.15;102496.47;5054417;28;19956;-59
2022/07/12 10:38:07;;;;;;;;;;;;;;;31.92;35.52;102494.47;5033984;28;19925;-58
2022/07/12 10:40:34;;;;;;;;;;;;;;;31.81;35.20;102487.44;5058089;28;19916;-58
2022/07/12 10:43:05;;;;;;;;;;;;;;;31.04;36.02;102487.56;5065416;28;19931;-58
2022/07/12 10:45:31;;;;;;;;;;;;;;;30.92;36.79;102488.84;5060089;28;20023;-59
2022/07/12 10:48:01;;;;;;;;;;;;;;;31.09;36.76;102500.75;5044431;28;20394;-58
2022/07/12 10:50:48;;;;;;;;;;;;;;;31.50;35.19;102498.16;5051474;28;19959;-59
2022/07/12 10:53:22;;;;;;;;;;;;;;;31.57;35.13;102501.06;5052727;28;19916;-59
2022/07/12 10:56:06;;;;;;;;;;;;;;;31.72;34.81;102490.34;5056643;28;20365;-58
2022/07/12 10:58:32;;;;;;;;;;;;;;;31.76;35.57;102488.97;5065734;28;20359;-59
2022/07/12 11:01:11;;;;;;;;;;;;;;;31.83;35.24;102488.13;5068216;28;20376;-59
2022/07/12 11:03:38;;;;;;;;;;;;;;;31.73;36.94;102486.56;5020361;28;19917;-58
2022/07/12 11:06:03;;;;;;;;;;;;;;;32.19;34.99;102484.22;5054266;28;19935;-59
2022/07/12 11:08:31;;;;;;;;;;;;;;;32.39;35.04;102473.72;5054594;28;19916;-59
2022/07/12 11:10:58;;;;;;;;;;;;;;;32.48;33.28;102477.28;5054398;28;20399;-59
2022/07/12 11:13:24;;;;;;;;;;;;;;;32.96;33.23;102472.69;5054536;28;19912;-59
2022/07/12 11:16:01;;;;;;;;;;;;;;;33.08;32.26;102477.78;5061454;28;19917;-58
2022/07/12 11:18:27;;;;;;;;;;;;;;;33.11;32.58;102474.69;5066534;28;19917;-59
2022/07/12 11:20:55;;;;;;;;;;;;;;;32.92;31.99;102482.34;5058248;28;19950;-59
2022/07/12 11:23:20;;;;;;;;;;;;;;;32.94;30.09;102473.91;5053893;28;19913;-59
2022/07/12 11:25:45;;;;;;;;;;;;;;;32.99;29.94;102480.59;5051279;28;19921;-59
2022/07/12 11:28:10;;;;;;;;;;;;;;;32.38;32.19;102479.38;5065182;28;19921;-59
2022/07/12 11:30:36;;;;;;;;;;;;;;;32.19;32.41;102468.63;5039718;28;20298;-59
2022/07/12 11:33:01;;;;;;;;;;;;;;;32.73;32.14;102467.16;5047900;28;19971;-58
2022/07/12 11:35:28;;;;;;;;;;;;;;;32.82;31.69;102462.47;5052414;28;19912;-59
2022/07/12 11:37:54;;;;;;;;;;;;;;;33.01;32.23;102458.47;5044407;28;20395;-59
2022/07/12 11:40:23;;;;;;;;;;;;;;;32.80;31.86;102462.66;5057560;28;19921;-58
2022/07/12 11:42:53;;;;;;;;;;;;;;;33.32;29.92;102461.22;5051675;28;19913;-59
2022/07/12 11:45:18;;;;;;;;;;;;;;;33.14;26.74;102471.59;5054824;28;19972;-59
2022/07/12 11:47:43;;;;;;;;;;;;;;;32.97;28.15;102473.56;5061922;28;19963;-59
2022/07/12 11:50:08;;;;;;;;;;;;;;;33.21;27.42;102467.06;5043527;28;19921;-59
2022/07/12 11:52:34;;;;;;;;;;;;;;;33.06;29.26;102474.38;5062590;28;19995;-59
2022/07/12 11:55:06;;;;;;;;;;;;;;;33.24;29.81;102460.38;5046040;28;20338;-60
2022/07/12 11:57:32;;;;;;;;;;;;;;;33.38;28.86;102464.25;5067870;28;19978;-59
2022/07/12 11:59:57;;;;;;;;;;;;;;;32.91;28.73;102453.19;5054363;28;19970;-59
2022/07/12 12:02:23;;;;;;;;;;;;;;;32.68;29.19;102442.94;5059665;28;19917;-60
2022/07/12 12:04:48;;;;;;;;;;;;;;;32.50;29.19;102447.81;5053733;28;19912;-59
2022/07/12 12:07:16;;;;;;;;;;;;;;;32.73;30.59;102438.84;5069233;28;20028;-59
2022/07/12 12:10:01;;;;;;;;;;;;;;;33.00;30.40;102446.59;5058891;28;19944;-60
2022/07/12 12:12:45;;;;;;;;;;;;;;;33.46;28.18;102447.75;5044767;28;19912;-60
2022/07/12 12:15:17;;;;;;;;;;;;;;;33.75;27.34;102440.63;5054337;28;19970;-60
2022/07/12 12:17:45;;;;;;;;;;;;;;;34.01;26.89;102437.53;5054044;28;19943;-60
2022/07/12 12:20:20;;;;;;;;;;;;;;;33.96;25.99;102431.72;5050944;28;20360;-60
2022/07/12 12:22:47;;;;;;;;;;;;;;;33.73;27.46;102435.34;5081743;28;19916;-59
2022/07/12 12:25:13;;;;;;;;;;;;;;;33.89;27.34;102428.00;5081692;28;19920;-59
2022/07/12 12:27:55;;;;;;;;;;;;;;;34.18;25.64;102424.47;5070535;28;19921;-59
2022/07/12 12:30:20;;;;;;;;;;;;;;;33.99;27.51;102417.59;5055524;28;19912;-59
2022/07/12 12:32:55;;;;;;;;;;;;;;;33.60;27.50;102416.72;5044865;28;19913;-59